createdAt,value
2018-08-27T00:01:05.804Z,2.37
2018-08-27T00:03:33.835Z,2.30
2018-08-27T00:06:01.881Z,2.30
2018-08-27T00:08:30.174Z,2.20
2018-08-27T00:10:58.192Z,2.35
2018-08-27T00:13:26.240Z,2.50
2018-08-27T00:15:54.304Z,2.25
2018-08-27T00:18:22.311Z,2.25
2018-08-27T00:20:50.354Z,2.40
2018-08-27T00:23:18.436Z,2.27
2018-08-27T00:25:46.486Z,1.90
2018-08-27T00:28:14.527Z,2.37
2018-08-27T00:30:42.572Z,2.60
2018-08-27T00:33:10.602Z,2.22
2018-08-27T00:35:38.632Z,2.80
2018-08-27T00:38:06.661Z,2.57
2018-08-27T00:40:34.714Z,2.60
2018-08-27T00:43:02.728Z,2.58
2018-08-27T00:45:30.776Z,2.80
2018-08-27T00:47:58.828Z,2.60
2018-08-27T00:50:26.855Z,2.70
2018-08-27T00:52:54.860Z,2.50
2018-08-27T00:55:22.896Z,3.40
2018-08-27T00:57:50.924Z,3.30
2018-08-27T01:00:18.990Z,2.40
2018-08-27T01:02:47.008Z,2.60
2018-08-27T01:05:15.052Z,2.65
2018-08-27T01:07:43.080Z,2.60
2018-08-27T01:10:11.125Z,2.80
2018-08-27T01:12:39.149Z,2.52
2018-08-27T01:15:07.534Z,2.50
2018-08-27T01:17:35.568Z,2.22
2018-08-27T01:20:03.797Z,2.20
2018-08-27T01:22:31.903Z,2.40
2018-08-27T01:24:59.952Z,2.60
2018-08-27T01:27:28.000Z,2.42
2018-08-27T01:29:56.048Z,2.30
2018-08-27T01:32:25.396Z,2.30
2018-08-27T01:34:53.596Z,2.50
2018-08-27T01:37:21.622Z,2.20
2018-08-27T01:39:49.648Z,2.55
2018-08-27T01:42:17.688Z,2.80
2018-08-27T01:44:45.726Z,2.83
2018-08-27T01:47:13.759Z,2.67
2018-08-27T01:49:41.795Z,2.60
2018-08-27T01:52:09.816Z,2.30
2018-08-27T01:54:37.857Z,2.60
2018-08-27T01:57:05.935Z,2.60
2018-08-27T01:59:33.961Z,2.70
2018-08-27T02:02:02.162Z,3.00
2018-08-27T02:04:30.196Z,2.80
2018-08-27T02:06:58.228Z,2.70
2018-08-27T02:09:26.739Z,2.60
2018-08-27T02:11:57.449Z,2.60
2018-08-27T02:14:26.340Z,2.60
2018-08-27T02:16:54.413Z,2.40
2018-08-27T02:19:22.677Z,2.90
2018-08-27T02:21:50.720Z,2.50
2018-08-27T02:24:18.752Z,2.47
2018-08-27T02:26:46.789Z,2.47
2018-08-27T02:29:15.060Z,2.20
2018-08-27T02:31:43.235Z,2.70
2018-08-27T02:34:11.267Z,2.23
2018-08-27T02:36:39.279Z,2.30
2018-08-27T02:39:10.209Z,2.20
2018-08-27T02:41:38.259Z,2.30
2018-08-27T02:44:06.322Z,2.60
2018-08-27T02:46:34.330Z,2.47
2018-08-27T02:49:02.337Z,2.10
2018-08-27T02:51:30.381Z,2.30
2018-08-27T02:53:58.440Z,2.40
2018-08-27T02:56:26.472Z,3.10
2018-08-27T02:58:54.516Z,2.20
2018-08-27T03:01:22.540Z,2.20
2018-08-27T03:03:50.585Z,2.33
2018-08-27T03:06:18.609Z,1.90
2018-08-27T03:08:46.657Z,2.00
2018-08-27T03:11:14.697Z,2.08
2018-08-27T03:13:42.736Z,2.30
2018-08-27T03:16:10.780Z,2.30
2018-08-27T03:18:38.837Z,2.30
2018-08-27T03:21:06.869Z,2.03
2018-08-27T03:23:34.909Z,2.10
2018-08-27T03:26:02.966Z,2.00
2018-08-27T03:28:31.008Z,1.90
2018-08-27T03:30:59.049Z,2.10
2018-08-27T03:33:27.062Z,2.20
2018-08-27T03:35:55.089Z,2.10
2018-08-27T03:38:23.179Z,1.92
2018-08-27T03:40:51.385Z,2.10
2018-08-27T03:43:19.237Z,2.40
2018-08-27T03:45:47.408Z,2.55
2018-08-27T03:48:15.480Z,2.10
2018-08-27T03:50:43.495Z,2.30
2018-08-27T03:53:11.544Z,2.60
2018-08-27T03:55:39.600Z,2.50
2018-08-27T03:58:07.644Z,2.50
2018-08-27T04:00:35.665Z,2.75
2018-08-27T04:03:04.005Z,2.77
2018-08-27T04:05:32.081Z,2.60
2018-08-27T04:08:00.118Z,2.60
2018-08-27T04:10:28.172Z,2.40
2018-08-27T04:12:56.199Z,2.20
2018-08-27T04:15:24.257Z,2.42
2018-08-27T04:17:52.274Z,2.40
2018-08-27T04:20:20.314Z,3.10
2018-08-27T04:22:48.344Z,2.90
2018-08-27T04:25:16.417Z,3.05
2018-08-27T04:27:44.457Z,3.50
2018-08-27T04:30:12.502Z,3.72
2018-08-27T04:32:40.535Z,3.08
2018-08-27T04:35:08.579Z,2.75
2018-08-27T04:37:36.633Z,2.58
2018-08-27T04:40:04.708Z,2.60
2018-08-27T04:42:32.760Z,2.90
2018-08-27T04:45:00.768Z,2.67
2018-08-27T04:47:28.800Z,2.80
2018-08-27T04:49:56.943Z,2.85
2018-08-27T04:52:25.002Z,2.80
2018-08-27T04:54:53.070Z,2.70
2018-08-27T04:57:21.101Z,2.90
2018-08-27T04:59:51.980Z,3.55
2018-08-27T05:02:20.001Z,2.75
2018-08-27T05:04:48.097Z,2.62
2018-08-27T05:07:16.180Z,2.70
2018-08-27T05:09:44.187Z,3.10
2018-08-27T05:12:12.228Z,2.87
2018-08-27T05:14:40.278Z,2.75
2018-08-27T05:17:08.317Z,2.60
2018-08-27T05:19:36.357Z,2.70
2018-08-27T05:22:04.409Z,2.80
2018-08-27T05:24:32.465Z,3.20
2018-08-27T05:27:00.519Z,3.40
2018-08-27T05:29:28.516Z,3.17
2018-08-27T05:31:56.578Z,2.80
2018-08-27T05:34:24.620Z,3.00
2018-08-27T05:36:52.641Z,3.22
2018-08-27T05:39:20.692Z,2.90
2018-08-27T05:41:48.777Z,3.95
2018-08-27T05:44:16.814Z,3.12
2018-08-27T05:46:44.858Z,3.83
2018-08-27T05:49:12.908Z,3.40
2018-08-27T05:51:40.948Z,2.80
2018-08-27T05:54:08.976Z,3.00
2018-08-27T05:56:37.028Z,3.50
2018-08-27T05:59:05.083Z,3.10
2018-08-27T06:01:33.145Z,4.45
2018-08-27T06:04:01.381Z,3.40
2018-08-27T06:06:29.444Z,4.00
2018-08-27T06:08:57.481Z,3.40
2018-08-27T06:11:25.517Z,3.58
2018-08-27T06:13:53.601Z,8.08
2018-08-27T06:16:21.775Z,4.33
2018-08-27T06:18:49.869Z,3.70
2018-08-27T06:21:17.925Z,3.20
2018-08-27T06:23:48.858Z,3.58
2018-08-27T06:26:16.928Z,3.62
2018-08-27T06:28:45.030Z,3.53
2018-08-27T06:31:13.072Z,3.77
2018-08-27T06:33:41.125Z,3.47
2018-08-27T06:36:09.175Z,2.67
2018-08-27T06:38:37.293Z,4.10
2018-08-27T06:41:05.541Z,3.12
2018-08-27T06:43:43.251Z,3.30
2018-08-27T06:46:11.577Z,3.55
2018-08-27T06:48:39.597Z,3.12
2018-08-27T06:51:07.689Z,2.90
2018-08-27T06:53:35.752Z,3.80
2018-08-27T06:56:03.900Z,3.25
2018-08-27T06:58:31.974Z,3.40
2018-08-27T07:01:00.025Z,12.75
2018-08-27T07:03:28.077Z,5.35
2018-08-27T07:05:56.129Z,4.15
2018-08-27T07:08:24.169Z,2.77
2018-08-27T07:10:53.408Z,3.10
2018-08-27T07:13:21.460Z,2.92
2018-08-27T07:15:49.519Z,2.90
2018-08-27T07:18:17.572Z,2.80
2018-08-27T07:20:45.609Z,2.42
2018-08-27T07:23:13.676Z,2.50
2018-08-27T07:25:41.716Z,3.10
2018-08-27T07:28:09.792Z,2.60
2018-08-27T07:30:37.801Z,3.08
2018-08-27T07:33:05.858Z,3.30
2018-08-27T07:35:33.935Z,2.70
2018-08-27T07:38:01.964Z,2.70
2018-08-27T07:40:30.017Z,2.50
2018-08-27T07:42:58.352Z,2.60
2018-08-27T07:45:26.400Z,3.02
2018-08-27T07:47:54.414Z,2.65
2018-08-27T07:50:22.504Z,2.50
2018-08-27T07:52:50.540Z,2.62
2018-08-27T07:55:18.573Z,2.90
2018-08-27T07:57:46.636Z,2.90
2018-08-27T08:00:20.243Z,2.70
2018-08-27T08:02:48.589Z,2.60
2018-08-27T08:05:16.812Z,2.75
2018-08-27T08:07:45.047Z,2.70
2018-08-27T08:10:13.089Z,2.90
2018-08-27T08:12:41.126Z,2.85
2018-08-27T08:15:09.172Z,2.70
2018-08-27T08:17:37.220Z,2.90
2018-08-27T08:20:05.573Z,3.47
2018-08-27T08:22:33.757Z,3.10
2018-08-27T08:25:01.820Z,2.75
2018-08-27T08:27:29.840Z,6.17
2018-08-27T08:29:57.875Z,5.03
2018-08-27T08:32:25.922Z,3.40
2018-08-27T08:34:54.724Z,3.50
2018-08-27T08:37:22.772Z,2.60
2018-08-27T08:39:51.015Z,2.70
2018-08-27T08:42:18.992Z,3.00
2018-08-27T08:44:47.040Z,3.17
2018-08-27T08:47:15.073Z,2.85
2018-08-27T08:49:43.133Z,3.30
2018-08-27T08:52:11.173Z,3.00
2018-08-27T08:54:39.239Z,3.35
2018-08-27T08:57:07.333Z,3.72
2018-08-27T08:59:35.391Z,3.25
2018-08-27T09:02:03.472Z,3.37
2018-08-27T09:04:31.516Z,3.87
2018-08-27T09:06:59.562Z,4.47
2018-08-27T09:09:27.605Z,4.30
2018-08-27T09:11:55.661Z,4.50
2018-08-27T09:14:23.709Z,4.35
2018-08-27T09:16:51.865Z,4.70
2018-08-27T09:19:19.813Z,5.60
2018-08-27T09:21:47.872Z,4.67
2018-08-27T09:24:15.908Z,4.90
2018-08-27T09:26:44.121Z,4.93
2018-08-27T09:29:12.148Z,5.22
2018-08-27T09:31:40.200Z,4.65
2018-08-27T09:34:08.241Z,5.30
2018-08-27T09:36:36.276Z,6.00
2018-08-27T09:39:05.620Z,5.35
2018-08-27T09:41:33.713Z,4.90
2018-08-27T09:44:01.696Z,5.78
2018-08-27T09:46:29.728Z,5.30
2018-08-27T09:48:57.763Z,5.40
2018-08-27T09:51:25.794Z,5.92
2018-08-27T09:53:53.825Z,6.05
2018-08-27T09:56:21.964Z,7.67
2018-08-27T09:58:50.098Z,6.57
2018-08-27T10:01:23.581Z,6.72
2018-08-27T10:03:51.804Z,6.80
2018-08-27T10:06:19.924Z,6.42
2018-08-27T10:08:48.060Z,6.65
2018-08-27T10:11:16.251Z,6.65
2018-08-27T10:13:44.401Z,7.00
2018-08-27T10:16:12.436Z,7.20
2018-08-27T10:18:40.485Z,6.40
2018-08-27T10:21:08.508Z,6.47
2018-08-27T10:23:36.914Z,6.30
2018-08-27T10:26:05.116Z,6.62
2018-08-27T10:28:33.173Z,7.42
2018-08-27T10:31:01.301Z,7.10
2018-08-27T10:33:29.352Z,6.42
2018-08-27T10:35:57.582Z,6.70
2018-08-27T10:38:25.656Z,7.40
2018-08-27T10:40:54.058Z,7.20
2018-08-27T10:43:22.107Z,6.90
2018-08-27T10:45:50.164Z,6.75
2018-08-27T10:48:18.232Z,6.37
2018-08-27T10:50:46.256Z,6.50
2018-08-27T10:53:14.286Z,6.95
2018-08-27T10:55:42.317Z,6.63
2018-08-27T10:58:10.359Z,6.25
2018-08-27T11:00:38.375Z,6.25
2018-08-27T11:03:06.421Z,6.45
2018-08-27T11:05:34.576Z,6.45
2018-08-27T11:08:02.622Z,6.90
2018-08-27T11:10:30.711Z,6.23
2018-08-27T11:12:59.319Z,6.28
2018-08-27T11:18:11.060Z,5.78
2018-08-27T11:20:39.400Z,5.95
2018-08-27T11:23:07.240Z,6.05
2018-08-27T11:25:35.339Z,5.30
2018-08-27T11:28:03.404Z,6.33
2018-08-27T11:30:31.421Z,6.70
2018-08-27T11:32:59.526Z,6.90
2018-08-27T11:35:27.517Z,6.60
2018-08-27T11:37:55.573Z,6.30
2018-08-27T11:40:23.646Z,6.40
2018-08-27T11:42:51.712Z,6.60
2018-08-27T11:45:19.792Z,6.80
2018-08-27T11:47:54.688Z,6.70
2018-08-27T11:50:22.863Z,6.97
2018-08-27T11:52:50.757Z,6.10
2018-08-27T11:55:18.803Z,6.37
2018-08-27T11:57:46.837Z,6.40
2018-08-27T12:00:20.358Z,6.22
2018-08-27T12:02:48.405Z,6.20
2018-08-27T12:05:16.487Z,6.00
2018-08-27T12:07:44.513Z,5.93
2018-08-27T12:10:12.529Z,6.30
2018-08-27T12:12:40.561Z,5.93
2018-08-27T12:15:08.584Z,5.60
2018-08-27T12:17:36.640Z,6.20
2018-08-27T12:20:04.876Z,5.50
2018-08-27T12:22:32.940Z,6.00
2018-08-27T12:25:00.980Z,6.33
2018-08-27T12:27:29.013Z,6.12
2018-08-27T12:29:57.079Z,6.72
2018-08-27T12:32:25.129Z,6.60
2018-08-27T12:34:53.152Z,6.30
2018-08-27T12:37:21.243Z,6.37
2018-08-27T12:39:49.288Z,7.20
2018-08-27T12:42:17.512Z,7.60
2018-08-27T12:44:45.565Z,7.30
2018-08-27T12:47:13.868Z,6.15
2018-08-27T12:49:41.964Z,4.60
2018-08-27T12:52:09.995Z,3.90
2018-08-27T12:54:38.059Z,3.90
2018-08-27T12:57:07.234Z,3.47
2018-08-27T12:59:35.305Z,3.50
2018-08-27T13:02:03.357Z,3.85
2018-08-27T13:04:31.405Z,3.30
2018-08-27T13:06:59.420Z,3.40
2018-08-27T13:09:27.476Z,3.30
2018-08-27T13:11:55.507Z,3.20
2018-08-27T13:14:23.546Z,3.50
2018-08-27T13:16:51.628Z,3.70
2018-08-27T13:19:19.668Z,3.67
2018-08-27T13:21:47.712Z,3.60
2018-08-27T13:24:15.736Z,3.60
2018-08-27T13:26:43.785Z,3.60
2018-08-27T13:29:11.842Z,3.58
2018-08-27T13:31:40.024Z,4.00
2018-08-27T13:34:07.912Z,4.10
2018-08-27T13:36:35.997Z,4.70
2018-08-27T13:39:05.046Z,5.35
2018-08-27T13:41:33.090Z,5.80
2018-08-27T13:44:01.138Z,5.95
2018-08-27T13:46:29.185Z,5.10
2018-08-27T13:48:57.208Z,5.08
2018-08-27T13:51:30.765Z,5.40
2018-08-27T13:53:58.799Z,5.47
2018-08-27T13:56:26.905Z,5.37
2018-08-27T13:58:54.936Z,5.28
2018-08-27T14:01:22.961Z,5.30
2018-08-27T14:03:50.986Z,5.60
2018-08-27T14:06:19.088Z,5.30
2018-08-27T14:08:47.118Z,5.40
2018-08-27T14:11:15.189Z,5.25
2018-08-27T14:13:43.273Z,5.50
2018-08-27T14:16:11.324Z,5.70
2018-08-27T14:18:39.472Z,5.20
2018-08-27T14:21:07.513Z,5.30
2018-08-27T14:23:35.547Z,6.70
2018-08-27T14:26:03.683Z,5.50
2018-08-27T14:28:31.632Z,5.60
2018-08-27T14:30:59.674Z,5.20
2018-08-27T14:33:27.746Z,5.35
2018-08-27T14:35:55.784Z,5.50
2018-08-27T14:38:23.820Z,5.30
2018-08-27T14:40:51.835Z,5.50
2018-08-27T14:43:19.888Z,5.35
2018-08-27T14:45:47.964Z,5.85
2018-08-27T14:48:16.138Z,5.45
2018-08-27T14:50:44.074Z,6.33
2018-08-27T14:53:12.133Z,5.83
2018-08-27T14:55:40.160Z,6.30
2018-08-27T14:58:08.218Z,5.95
2018-08-27T15:00:36.295Z,6.33
2018-08-27T15:03:04.377Z,6.03
2018-08-27T15:05:32.461Z,6.40
2018-08-27T15:08:00.510Z,6.17
2018-08-27T15:10:28.572Z,5.90
2018-08-27T15:12:56.625Z,4.85
2018-08-27T15:15:24.668Z,4.30
2018-08-27T15:17:52.768Z,4.90
2018-08-27T15:20:20.800Z,4.95
2018-08-27T15:22:48.847Z,4.30
2018-08-27T15:25:16.892Z,4.07
2018-08-27T15:27:44.948Z,4.70
2018-08-27T15:30:13.005Z,4.42
2018-08-27T15:32:41.028Z,4.40
2018-08-27T15:35:09.069Z,4.03
2018-08-27T15:37:37.092Z,4.60
2018-08-27T15:40:05.521Z,4.47
2018-08-27T15:42:33.585Z,4.17
2018-08-27T15:45:05.873Z,4.00
2018-08-27T15:47:33.924Z,5.25
2018-08-27T15:50:02.004Z,3.90
2018-08-27T15:52:30.009Z,4.03
2018-08-27T15:54:58.064Z,3.70
2018-08-27T15:57:26.175Z,3.77
2018-08-27T15:59:54.170Z,3.90
2018-08-27T16:02:22.225Z,3.70
2018-08-27T16:04:50.276Z,3.60
2018-08-27T16:07:18.327Z,4.30
2018-08-27T16:09:46.370Z,3.90
2018-08-27T16:12:14.425Z,4.67
2018-08-27T16:14:42.442Z,4.78
2018-08-27T16:17:10.515Z,4.35
2018-08-27T16:19:38.645Z,4.85
2018-08-27T16:22:06.802Z,4.40
2018-08-27T16:24:34.828Z,4.70
2018-08-27T16:27:02.848Z,4.40
2018-08-27T16:29:30.914Z,4.55
2018-08-27T16:31:58.968Z,4.55
2018-08-27T16:34:27.048Z,4.40
2018-08-27T16:36:55.144Z,4.87
2018-08-27T16:39:23.583Z,4.10
2018-08-27T16:41:52.538Z,4.90
2018-08-27T16:44:20.573Z,4.65
2018-08-27T16:46:48.624Z,4.30
2018-08-27T16:49:16.684Z,4.83
2018-08-27T16:51:44.780Z,4.47
2018-08-27T16:54:12.801Z,4.40
2018-08-27T16:56:40.857Z,4.30
2018-08-27T16:59:08.917Z,5.40
2018-08-27T17:01:36.962Z,5.30
2018-08-27T17:04:05.057Z,5.03
2018-08-27T17:06:33.112Z,5.60
2018-08-27T17:09:01.657Z,5.45
2018-08-27T17:11:29.699Z,4.30
2018-08-27T17:13:57.769Z,4.30
2018-08-27T17:16:25.802Z,5.30
2018-08-27T17:18:53.842Z,5.25
2018-08-27T17:21:21.875Z,4.90
2018-08-27T17:23:49.910Z,5.20
2018-08-27T17:26:17.940Z,5.60
2018-08-27T17:28:45.978Z,5.28
2018-08-27T17:31:14.040Z,5.67
2018-08-27T17:33:42.077Z,5.20
2018-08-27T17:36:10.125Z,5.50
2018-08-27T17:38:38.369Z,5.40
2018-08-27T17:41:06.456Z,5.37
2018-08-27T17:43:35.163Z,5.35
2018-08-27T17:46:03.203Z,5.00
2018-08-27T17:48:31.264Z,4.90
2018-08-27T17:50:59.304Z,5.45
2018-08-27T17:53:27.368Z,4.90
2018-08-27T17:55:55.415Z,5.50
2018-08-27T17:58:23.459Z,5.10
2018-08-27T18:00:51.480Z,5.30
2018-08-27T18:03:19.556Z,5.10
2018-08-27T18:05:47.686Z,5.12
2018-08-27T18:08:15.729Z,5.53
2018-08-27T18:10:43.820Z,5.23
2018-08-27T18:13:11.833Z,4.80
2018-08-27T18:15:39.871Z,4.75
2018-08-27T18:18:07.925Z,5.00
2018-08-27T18:20:35.958Z,4.95
2018-08-27T18:23:03.993Z,4.50
2018-08-27T18:25:32.062Z,4.90
2018-08-27T18:28:00.107Z,4.80
2018-08-27T18:30:28.120Z,4.95
2018-08-27T18:32:56.376Z,5.28
2018-08-27T18:35:24.445Z,4.70
2018-08-27T18:37:52.472Z,4.85
2018-08-27T18:40:20.484Z,5.03
2018-08-27T18:42:48.528Z,5.00
2018-08-27T18:45:16.625Z,5.00
2018-08-27T18:47:44.624Z,4.90
2018-08-27T18:50:12.669Z,5.37
2018-08-27T18:52:40.697Z,5.00
2018-08-27T18:55:08.738Z,4.70
2018-08-27T18:57:36.825Z,5.20
2018-08-27T19:00:04.881Z,4.80
2018-08-27T19:02:32.917Z,5.00
2018-08-27T19:05:00.972Z,4.90
2018-08-27T19:07:28.992Z,4.90
2018-08-27T19:09:57.042Z,5.80
2018-08-27T19:12:25.117Z,5.42
2018-08-27T19:14:53.138Z,5.50
2018-08-27T19:17:21.829Z,5.08
2018-08-27T19:19:49.892Z,5.53
2018-08-27T19:22:17.938Z,5.80
2018-08-27T19:24:45.964Z,5.37
2018-08-27T19:27:14.008Z,5.60
2018-08-27T19:29:42.039Z,5.95
2018-08-27T19:32:10.083Z,6.28
2018-08-27T19:34:38.160Z,6.37
2018-08-27T19:37:06.396Z,6.15
2018-08-27T19:39:34.301Z,6.50
2018-08-27T19:42:02.273Z,6.72
2018-08-27T19:44:30.345Z,5.83
2018-08-27T19:46:58.389Z,6.00
2018-08-27T19:49:26.429Z,5.85
2018-08-27T19:51:54.464Z,5.90
2018-08-27T19:54:22.529Z,5.90
2018-08-27T19:56:50.569Z,5.60
2018-08-27T19:59:18.632Z,5.40
2018-08-27T20:01:46.685Z,5.90
2018-08-27T20:04:14.782Z,6.15
2018-08-27T20:06:42.804Z,6.25
2018-08-27T20:09:10.862Z,5.80
2018-08-27T20:11:38.888Z,6.25
2018-08-27T20:14:06.916Z,5.50
2018-08-27T20:16:35.279Z,6.30
2018-08-27T20:19:03.192Z,5.80
2018-08-27T20:21:31.277Z,6.00
2018-08-27T20:23:59.344Z,6.15
2018-08-27T20:26:27.397Z,5.50
2018-08-27T20:28:55.452Z,6.40
2018-08-27T20:31:23.484Z,5.90
2018-08-27T20:33:51.556Z,5.70
2018-08-27T20:36:19.656Z,5.47
2018-08-27T20:38:47.711Z,5.22
2018-08-27T20:41:15.739Z,5.62
2018-08-27T20:43:43.777Z,5.25
2018-08-27T20:48:39.589Z,5.47
2018-08-27T20:51:07.635Z,5.87
2018-08-27T20:53:35.720Z,4.47
2018-08-27T20:56:03.749Z,4.87
2018-08-27T20:58:31.785Z,5.80
2018-08-27T21:00:59.845Z,5.05
2018-08-27T21:03:27.900Z,5.15
2018-08-27T21:05:55.966Z,5.40
2018-08-27T21:08:23.988Z,5.25
2018-08-27T21:10:52.045Z,5.65
2018-08-27T21:13:20.068Z,5.60
2018-08-27T21:15:48.090Z,5.60
2018-08-27T21:18:16.130Z,5.12
2018-08-27T21:20:44.169Z,5.60
2018-08-27T21:23:12.216Z,5.20
2018-08-27T21:25:40.287Z,5.47
2018-08-27T21:28:08.329Z,5.55
2018-08-27T21:30:36.354Z,5.55
2018-08-27T21:33:04.401Z,5.75
2018-08-27T21:35:32.438Z,5.65
2018-08-27T21:38:00.508Z,5.30
2018-08-27T21:40:28.536Z,5.47
2018-08-27T21:42:56.574Z,5.50
2018-08-27T21:45:24.618Z,5.30
2018-08-27T21:47:52.669Z,5.33
2018-08-27T21:50:20.692Z,5.30
2018-08-27T21:52:48.740Z,5.35
2018-08-27T21:55:16.809Z,5.30
2018-08-27T21:57:44.833Z,5.70
2018-08-27T22:00:12.905Z,5.30
2018-08-27T22:02:46.448Z,4.83
2018-08-27T22:05:15.814Z,4.70
2018-08-27T22:07:43.868Z,4.42
2018-08-27T22:10:11.897Z,4.90
2018-08-27T22:12:39.936Z,5.05
2018-08-27T22:15:07.971Z,5.55
2018-08-27T22:17:36.038Z,5.40
2018-08-27T22:20:04.279Z,5.15
2018-08-27T22:22:32.302Z,5.33
2018-08-27T22:25:00.329Z,5.58
2018-08-27T22:27:28.377Z,5.42
2018-08-27T22:29:56.396Z,5.10
2018-08-27T22:32:24.430Z,5.75
2018-08-27T22:34:52.475Z,5.60
2018-08-27T22:37:20.545Z,6.33
2018-08-27T22:39:48.576Z,5.87
2018-08-27T22:42:16.640Z,6.12
2018-08-27T22:44:44.663Z,6.40
2018-08-27T22:47:12.700Z,6.28
2018-08-27T22:49:42.088Z,5.50
2018-08-27T22:52:10.600Z,6.00
2018-08-27T22:54:38.646Z,6.67
2018-08-27T22:57:06.819Z,6.00
2018-08-27T22:59:34.935Z,6.62
2018-08-27T23:02:03.364Z,6.70
2018-08-27T23:04:37.029Z,6.58
2018-08-27T23:07:05.110Z,6.30
2018-08-27T23:09:33.294Z,6.30
2018-08-27T23:12:01.329Z,6.15
2018-08-27T23:14:29.388Z,5.85
2018-08-27T23:16:57.434Z,5.72
2018-08-27T23:19:25.463Z,6.03
2018-08-27T23:21:53.520Z,5.53
2018-08-27T23:24:21.532Z,5.90
2018-08-27T23:26:49.575Z,5.30
2018-08-27T23:29:17.597Z,5.10
2018-08-27T23:31:45.653Z,6.40
2018-08-27T23:34:13.680Z,5.42
2018-08-27T23:36:41.756Z,4.90
2018-08-27T23:39:09.790Z,5.67
2018-08-27T23:41:37.806Z,5.60
2018-08-27T23:44:05.840Z,5.28
2018-08-27T23:46:33.875Z,5.15
2018-08-27T23:49:01.920Z,5.20
2018-08-27T23:51:29.940Z,5.22
2018-08-27T23:53:58.008Z,4.75
2018-08-27T23:56:26.046Z,5.15
2018-08-27T23:58:54.073Z,5.27
